sensor_id;sensor_type;location;lat;lon;timestamp;P1;durP1;ratioP1;P2;durP2;ratioP2
71296;SDS011;59082;50.658;4.608;2023-12-20T00:02:22;6.00;;;2.53;;
71296;SDS011;59082;50.658;4.608;2023-12-20T00:04:48;4.37;;;1.53;;
71296;SDS011;59082;50.658;4.608;2023-12-20T00:07:13;8.57;;;2.13;;
71296;SDS011;59082;50.658;4.608;2023-12-20T00:09:40;6.37;;;1.47;;
71296;SDS011;59082;50.658;4.608;2023-12-20T00:12:05;10.77;;;2.10;;
71296;SDS011;59082;50.658;4.608;2023-12-20T00:14:30;3.83;;;1.87;;
71296;SDS011;59082;50.658;4.608;2023-12-20T00:16:56;8.73;;;2.40;;
71296;SDS011;59082;50.658;4.608;2023-12-20T00:19:21;5.53;;;1.77;;
71296;SDS011;59082;50.658;4.608;2023-12-20T00:21:47;4.77;;;1.77;;
71296;SDS011;59082;50.658;4.608;2023-12-20T00:24:12;5.60;;;2.27;;
71296;SDS011;59082;50.658;4.608;2023-12-20T00:26:37;5.53;;;1.85;;
71296;SDS011;59082;50.658;4.608;2023-12-20T00:29:03;6.10;;;2.27;;
71296;SDS011;59082;50.658;4.608;2023-12-20T00:31:28;3.97;;;2.00;;
71296;SDS011;59082;50.658;4.608;2023-12-20T00:33:53;7.17;;;1.40;;
71296;SDS011;59082;50.658;4.608;2023-12-20T00:36:19;3.38;;;1.70;;
71296;SDS011;59082;50.658;4.608;2023-12-20T00:38:45;8.43;;;2.10;;
71296;SDS011;59082;50.658;4.608;2023-12-20T00:41:10;3.97;;;1.50;;
71296;SDS011;59082;50.658;4.608;2023-12-20T00:43:35;7.07;;;1.20;;
71296;SDS011;59082;50.658;4.608;2023-12-20T00:46:01;7.40;;;1.30;;
71296;SDS011;59082;50.658;4.608;2023-12-20T00:48:26;5.80;;;1.67;;
71296;SDS011;59082;50.658;4.608;2023-12-20T00:50:52;6.60;;;1.58;;
71296;SDS011;59082;50.658;4.608;2023-12-20T00:53:18;4.95;;;2.35;;
71296;SDS011;59082;50.658;4.608;2023-12-20T00:55:43;6.27;;;2.17;;
71296;SDS011;59082;50.658;4.608;2023-12-20T00:58:10;4.95;;;1.70;;
71296;SDS011;59082;50.658;4.608;2023-12-20T01:00:35;5.03;;;1.90;;
71296;SDS011;59082;50.658;4.608;2023-12-20T01:03:00;3.80;;;2.00;;
71296;SDS011;59082;50.658;4.608;2023-12-20T01:05:26;5.47;;;2.10;;
71296;SDS011;59082;50.658;4.608;2023-12-20T01:07:51;2.87;;;1.53;;
71296;SDS011;59082;50.658;4.608;2023-12-20T01:10:16;11.30;;;2.20;;
71296;SDS011;59082;50.658;4.608;2023-12-20T01:12:42;7.00;;;1.90;;
71296;SDS011;59082;50.658;4.608;2023-12-20T01:15:08;8.80;;;1.93;;
71296;SDS011;59082;50.658;4.608;2023-12-20T01:17:33;6.20;;;2.08;;
71296;SDS011;59082;50.658;4.608;2023-12-20T01:19:59;7.20;;;2.13;;
71296;SDS011;59082;50.658;4.608;2023-12-20T01:22:25;4.43;;;2.17;;
71296;SDS011;59082;50.658;4.608;2023-12-20T01:24:51;8.10;;;1.95;;
71296;SDS011;59082;50.658;4.608;2023-12-20T01:27:16;5.47;;;1.80;;
71296;SDS011;59082;50.658;4.608;2023-12-20T01:29:41;12.40;;;1.95;;
71296;SDS011;59082;50.658;4.608;2023-12-20T01:32:07;3.53;;;2.13;;
71296;SDS011;59082;50.658;4.608;2023-12-20T01:34:32;8.33;;;1.80;;
71296;SDS011;59082;50.658;4.608;2023-12-20T01:36:57;6.33;;;1.70;;
71296;SDS011;59082;50.658;4.608;2023-12-20T01:39:23;5.53;;;2.10;;
71296;SDS011;59082;50.658;4.608;2023-12-20T01:41:48;5.60;;;1.88;;
71296;SDS011;59082;50.658;4.608;2023-12-20T01:44:14;7.93;;;2.13;;
71296;SDS011;59082;50.658;4.608;2023-12-20T01:46:39;5.37;;;2.40;;
71296;SDS011;59082;50.658;4.608;2023-12-20T01:49:06;5.40;;;2.40;;
71296;SDS011;59082;50.658;4.608;2023-12-20T01:51:31;6.75;;;2.40;;
71296;SDS011;59082;50.658;4.608;2023-12-20T01:53:57;7.13;;;2.73;;
71296;SDS011;59082;50.658;4.608;2023-12-20T01:56:23;8.03;;;2.20;;
71296;SDS011;59082;50.658;4.608;2023-12-20T01:58:48;10.45;;;2.15;;
71296;SDS011;59082;50.658;4.608;2023-12-20T02:01:13;11.43;;;2.50;;
71296;SDS011;59082;50.658;4.608;2023-12-20T02:03:40;7.20;;;2.40;;
71296;SDS011;59082;50.658;4.608;2023-12-20T02:06:05;6.22;;;2.50;;
71296;SDS011;59082;50.658;4.608;2023-12-20T02:08:31;7.10;;;2.23;;
71296;SDS011;59082;50.658;4.608;2023-12-20T02:10:56;5.93;;;2.30;;
71296;SDS011;59082;50.658;4.608;2023-12-20T02:13:22;7.27;;;2.73;;
71296;SDS011;59082;50.658;4.608;2023-12-20T02:15:47;6.07;;;3.07;;
71296;SDS011;59082;50.658;4.608;2023-12-20T02:18:13;5.33;;;2.60;;
71296;SDS011;59082;50.658;4.608;2023-12-20T02:20:40;7.55;;;2.30;;
71296;SDS011;59082;50.658;4.608;2023-12-20T02:23:06;5.60;;;2.77;;
71296;SDS011;59082;50.658;4.608;2023-12-20T02:25:31;6.78;;;2.33;;
71296;SDS011;59082;50.658;4.608;2023-12-20T02:27:56;8.83;;;2.53;;
71296;SDS011;59082;50.658;4.608;2023-12-20T02:30:22;5.17;;;3.13;;
71296;SDS011;59082;50.658;4.608;2023-12-20T02:32:48;9.73;;;3.27;;
71296;SDS011;59082;50.658;4.608;2023-12-20T02:35:13;6.95;;;2.70;;
71296;SDS011;59082;50.658;4.608;2023-12-20T02:37:39;6.50;;;3.00;;
71296;SDS011;59082;50.658;4.608;2023-12-20T02:40:04;8.23;;;2.57;;
71296;SDS011;59082;50.658;4.608;2023-12-20T02:42:30;9.30;;;2.95;;
71296;SDS011;59082;50.658;4.608;2023-12-20T02:44:55;9.23;;;3.20;;
71296;SDS011;59082;50.658;4.608;2023-12-20T02:47:20;13.97;;;4.07;;
71296;SDS011;59082;50.658;4.608;2023-12-20T02:49:46;9.47;;;3.53;;
71296;SDS011;59082;50.658;4.608;2023-12-20T02:52:11;5.93;;;3.50;;
71296;SDS011;59082;50.658;4.608;2023-12-20T02:54:36;9.00;;;3.60;;
71296;SDS011;59082;50.658;4.608;2023-12-20T02:57:02;10.75;;;2.67;;
71296;SDS011;59082;50.658;4.608;2023-12-20T02:59:27;11.43;;;3.00;;
71296;SDS011;59082;50.658;4.608;2023-12-20T03:01:53;10.87;;;3.30;;
71296;SDS011;59082;50.658;4.608;2023-12-20T03:04:18;13.03;;;3.93;;
71296;SDS011;59082;50.658;4.608;2023-12-20T03:06:43;7.50;;;3.23;;
71296;SDS011;59082;50.658;4.608;2023-12-20T03:09:09;12.52;;;3.53;;
71296;SDS011;59082;50.658;4.608;2023-12-20T03:11:34;8.97;;;3.43;;
71296;SDS011;59082;50.658;4.608;2023-12-20T03:14:00;11.73;;;3.73;;
71296;SDS011;59082;50.658;4.608;2023-12-20T03:16:25;8.10;;;3.00;;
71296;SDS011;59082;50.658;4.608;2023-12-20T03:18:50;11.53;;;3.77;;
71296;SDS011;59082;50.658;4.608;2023-12-20T03:21:16;10.75;;;3.55;;
71296;SDS011;59082;50.658;4.608;2023-12-20T03:23:41;4.73;;;3.53;;
71296;SDS011;59082;50.658;4.608;2023-12-20T03:26:07;14.77;;;3.83;;
71296;SDS011;59082;50.658;4.608;2023-12-20T03:28:32;14.13;;;4.85;;
71296;SDS011;59082;50.658;4.608;2023-12-20T03:30:58;8.93;;;3.90;;
71296;SDS011;59082;50.658;4.608;2023-12-20T03:33:23;5.10;;;3.20;;
71296;SDS011;59082;50.658;4.608;2023-12-20T03:35:49;8.70;;;3.87;;
71296;SDS011;59082;50.658;4.608;2023-12-20T03:38:14;10.07;;;4.07;;
71296;SDS011;59082;50.658;4.608;2023-12-20T03:40:39;6.93;;;3.47;;
71296;SDS011;59082;50.658;4.608;2023-12-20T03:43:05;11.73;;;3.63;;
71296;SDS011;59082;50.658;4.608;2023-12-20T03:45:30;5.90;;;3.40;;
71296;SDS011;59082;50.658;4.608;2023-12-20T03:47:56;8.52;;;3.35;;
71296;SDS011;59082;50.658;4.608;2023-12-20T03:50:22;9.97;;;3.37;;
71296;SDS011;59082;50.658;4.608;2023-12-20T03:52:47;13.23;;;3.27;;
71296;SDS011;59082;50.658;4.608;2023-12-20T03:55:13;5.93;;;3.23;;
71296;SDS011;59082;50.658;4.608;2023-12-20T03:57:38;12.40;;;3.17;;
71296;SDS011;59082;50.658;4.608;2023-12-20T04:00:03;8.37;;;2.73;;
71296;SDS011;59082;50.658;4.608;2023-12-20T04:02:29;6.87;;;2.57;;
71296;SDS011;59082;50.658;4.608;2023-12-20T04:04:54;7.77;;;2.70;;
71296;SDS011;59082;50.658;4.608;2023-12-20T04:07:20;18.83;;;3.45;;
71296;SDS011;59082;50.658;4.608;2023-12-20T04:09:45;15.23;;;3.93;;
71296;SDS011;59082;50.658;4.608;2023-12-20T04:12:12;11.18;;;2.92;;
71296;SDS011;59082;50.658;4.608;2023-12-20T04:14:37;7.27;;;3.47;;
71296;SDS011;59082;50.658;4.608;2023-12-20T04:17:02;9.70;;;3.57;;
71296;SDS011;59082;50.658;4.608;2023-12-20T04:19:28;7.73;;;2.90;;
71296;SDS011;59082;50.658;4.608;2023-12-20T04:21:53;6.70;;;3.17;;
71296;SDS011;59082;50.658;4.608;2023-12-20T04:24:18;11.97;;;2.97;;
71296;SDS011;59082;50.658;4.608;2023-12-20T04:26:44;7.90;;;2.72;;
71296;SDS011;59082;50.658;4.608;2023-12-20T04:29:09;11.10;;;3.97;;
71296;SDS011;59082;50.658;4.608;2023-12-20T04:31:34;9.90;;;3.00;;
71296;SDS011;59082;50.658;4.608;2023-12-20T04:34:00;9.23;;;3.30;;
71296;SDS011;59082;50.658;4.608;2023-12-20T04:36:25;8.33;;;3.20;;
71296;SDS011;59082;50.658;4.608;2023-12-20T04:38:52;8.23;;;3.15;;
71296;SDS011;59082;50.658;4.608;2023-12-20T04:41:18;8.75;;;2.97;;
71296;SDS011;59082;50.658;4.608;2023-12-20T04:43:43;9.57;;;2.30;;
71296;SDS011;59082;50.658;4.608;2023-12-20T04:46:09;12.45;;;2.72;;
71296;SDS011;59082;50.658;4.608;2023-12-20T04:48:34;11.70;;;2.27;;
71296;SDS011;59082;50.658;4.608;2023-12-20T04:51:00;6.90;;;3.40;;
71296;SDS011;59082;50.658;4.608;2023-12-20T04:53:25;19.60;;;3.27;;
71296;SDS011;59082;50.658;4.608;2023-12-20T04:55:51;13.07;;;2.88;;
71296;SDS011;59082;50.658;4.608;2023-12-20T04:58:16;8.83;;;2.47;;
71296;SDS011;59082;50.658;4.608;2023-12-20T05:00:41;9.90;;;3.33;;
71296;SDS011;59082;50.658;4.608;2023-12-20T05:03:07;3.20;;;2.80;;
71296;SDS011;59082;50.658;4.608;2023-12-20T05:05:33;7.73;;;2.80;;
71296;SDS011;59082;50.658;4.608;2023-12-20T05:07:58;8.50;;;2.63;;
71296;SDS011;59082;50.658;4.608;2023-12-20T05:10:23;12.53;;;3.40;;
71296;SDS011;59082;50.658;4.608;2023-12-20T05:12:49;10.80;;;4.03;;
71296;SDS011;59082;50.658;4.608;2023-12-20T05:15:14;10.37;;;2.73;;
71296;SDS011;59082;50.658;4.608;2023-12-20T05:17:39;9.33;;;3.50;;
71296;SDS011;59082;50.658;4.608;2023-12-20T05:20:05;7.32;;;2.90;;
71296;SDS011;59082;50.658;4.608;2023-12-20T05:22:31;10.37;;;3.50;;
71296;SDS011;59082;50.658;4.608;2023-12-20T05:24:56;13.27;;;2.88;;
71296;SDS011;59082;50.658;4.608;2023-12-20T05:27:22;14.23;;;3.87;;
71296;SDS011;59082;50.658;4.608;2023-12-20T05:29:47;7.13;;;3.37;;
71296;SDS011;59082;50.658;4.608;2023-12-20T05:32:12;11.83;;;3.80;;
71296;SDS011;59082;50.658;4.608;2023-12-20T05:34:38;8.60;;;3.90;;
71296;SDS011;59082;50.658;4.608;2023-12-20T05:37:03;15.43;;;4.10;;
71296;SDS011;59082;50.658;4.608;2023-12-20T05:39:29;12.27;;;4.23;;
71296;SDS011;59082;50.658;4.608;2023-12-20T05:41:56;7.78;;;2.78;;
71296;SDS011;59082;50.658;4.608;2023-12-20T05:44:21;9.93;;;3.97;;
71296;SDS011;59082;50.658;4.608;2023-12-20T05:46:46;7.57;;;3.33;;
71296;SDS011;59082;50.658;4.608;2023-12-20T05:49:12;11.97;;;3.83;;
71296;SDS011;59082;50.658;4.608;2023-12-20T05:51:38;9.00;;;3.78;;
71296;SDS011;59082;50.658;4.608;2023-12-20T05:54:05;8.87;;;4.57;;
71296;SDS011;59082;50.658;4.608;2023-12-20T05:56:30;12.75;;;4.05;;
71296;SDS011;59082;50.658;4.608;2023-12-20T05:58:55;7.17;;;3.07;;
71296;SDS011;59082;50.658;4.608;2023-12-20T06:01:21;8.10;;;2.83;;
71296;SDS011;59082;50.658;4.608;2023-12-20T06:03:46;8.23;;;4.30;;
71296;SDS011;59082;50.658;4.608;2023-12-20T06:06:11;7.30;;;4.50;;
71296;SDS011;59082;50.658;4.608;2023-12-20T06:08:38;7.10;;;3.75;;
71296;SDS011;59082;50.658;4.608;2023-12-20T06:11:03;10.37;;;3.60;;
71296;SDS011;59082;50.658;4.608;2023-12-20T06:13:28;9.07;;;4.60;;
71296;SDS011;59082;50.658;4.608;2023-12-20T06:15:54;10.60;;;4.13;;
71296;SDS011;59082;50.658;4.608;2023-12-20T06:18:20;6.87;;;3.47;;
71296;SDS011;59082;50.658;4.608;2023-12-20T06:20:46;12.10;;;3.95;;
71296;SDS011;59082;50.658;4.608;2023-12-20T06:23:11;10.83;;;4.33;;
71296;SDS011;59082;50.658;4.608;2023-12-20T06:25:36;10.30;;;3.50;;
71296;SDS011;59082;50.658;4.608;2023-12-20T06:28:02;13.17;;;4.30;;
71296;SDS011;59082;50.658;4.608;2023-12-20T06:30:27;8.73;;;4.03;;
71296;SDS011;59082;50.658;4.608;2023-12-20T06:32:53;11.90;;;3.03;;
71296;SDS011;59082;50.658;4.608;2023-12-20T06:35:19;11.07;;;4.22;;
71296;SDS011;59082;50.658;4.608;2023-12-20T06:37:45;8.40;;;3.10;;
71296;SDS011;59082;50.658;4.608;2023-12-20T06:40:10;8.90;;;3.40;;
71296;SDS011;59082;50.658;4.608;2023-12-20T06:42:36;6.63;;;3.70;;
71296;SDS011;59082;50.658;4.608;2023-12-20T06:45:01;10.83;;;3.53;;
71296;SDS011;59082;50.658;4.608;2023-12-20T06:47:28;12.10;;;4.00;;
71296;SDS011;59082;50.658;4.608;2023-12-20T06:49:54;12.93;;;3.58;;
71296;SDS011;59082;50.658;4.608;2023-12-20T06:52:19;12.40;;;4.60;;
71296;SDS011;59082;50.658;4.608;2023-12-20T06:54:45;15.73;;;3.60;;
71296;SDS011;59082;50.658;4.608;2023-12-20T06:57:11;8.40;;;2.97;;
71296;SDS011;59082;50.658;4.608;2023-12-20T06:59:43;8.15;;;3.30;;
71296;SDS011;59082;50.658;4.608;2023-12-20T07:02:09;14.23;;;3.00;;
71296;SDS011;59082;50.658;4.608;2023-12-20T07:04:38;9.07;;;2.57;;
71296;SDS011;59082;50.658;4.608;2023-12-20T07:07:04;8.13;;;2.80;;
71296;SDS011;59082;50.658;4.608;2023-12-20T07:09:29;7.43;;;3.33;;
71296;SDS011;59082;50.658;4.608;2023-12-20T07:11:55;8.83;;;3.03;;
71296;SDS011;59082;50.658;4.608;2023-12-20T07:14:20;9.23;;;3.03;;
71296;SDS011;59082;50.658;4.608;2023-12-20T07:16:45;8.07;;;2.53;;
71296;SDS011;59082;50.658;4.608;2023-12-20T07:19:12;8.90;;;2.53;;
71296;SDS011;59082;50.658;4.608;2023-12-20T07:21:37;13.90;;;3.28;;
71296;SDS011;59082;50.658;4.608;2023-12-20T07:24:03;5.23;;;2.60;;
71296;SDS011;59082;50.658;4.608;2023-12-20T07:26:28;13.30;;;3.47;;
71296;SDS011;59082;50.658;4.608;2023-12-20T07:28:53;8.82;;;1.95;;
71296;SDS011;59082;50.658;4.608;2023-12-20T07:31:19;11.23;;;2.40;;
71296;SDS011;59082;50.658;4.608;2023-12-20T07:33:44;4.67;;;2.60;;
71296;SDS011;59082;50.658;4.608;2023-12-20T07:36:10;7.37;;;2.33;;
71296;SDS011;59082;50.658;4.608;2023-12-20T07:38:36;7.15;;;2.53;;
71296;SDS011;59082;50.658;4.608;2023-12-20T07:41:01;13.17;;;2.80;;
71296;SDS011;59082;50.658;4.608;2023-12-20T07:43:26;6.27;;;3.20;;
71296;SDS011;59082;50.658;4.608;2023-12-20T07:45:52;7.32;;;2.45;;
71296;SDS011;59082;50.658;4.608;2023-12-20T07:48:17;4.77;;;2.20;;
71296;SDS011;59082;50.658;4.608;2023-12-20T07:50:42;9.00;;;2.53;;
71296;SDS011;59082;50.658;4.608;2023-12-20T07:53:08;11.40;;;2.77;;
71296;SDS011;59082;50.658;4.608;2023-12-20T07:55:33;8.93;;;2.27;;
71296;SDS011;59082;50.658;4.608;2023-12-20T07:58:02;9.88;;;2.45;;
71296;SDS011;59082;50.658;4.608;2023-12-20T08:00:27;10.07;;;2.65;;
71296;SDS011;59082;50.658;4.608;2023-12-20T08:03:00;8.27;;;2.40;;
71296;SDS011;59082;50.658;4.608;2023-12-20T08:05:28;8.83;;;1.70;;
71296;SDS011;59082;50.658;4.608;2023-12-20T08:07:53;8.25;;;2.05;;
71296;SDS011;59082;50.658;4.608;2023-12-20T08:10:19;11.23;;;2.53;;
71296;SDS011;59082;50.658;4.608;2023-12-20T08:12:44;6.53;;;2.20;;
71296;SDS011;59082;50.658;4.608;2023-12-20T08:15:12;12.37;;;2.50;;
71296;SDS011;59082;50.658;4.608;2023-12-20T08:17:58;7.38;;;2.55;;
71296;SDS011;59082;50.658;4.608;2023-12-20T08:20:28;6.33;;;1.83;;
71296;SDS011;59082;50.658;4.608;2023-12-20T08:22:56;10.55;;;2.35;;
71296;SDS011;59082;50.658;4.608;2023-12-20T08:25:24;9.75;;;2.08;;
71296;SDS011;59082;50.658;4.608;2023-12-20T08:27:59;7.15;;;2.30;;
71296;SDS011;59082;50.658;4.608;2023-12-20T08:33:07;6.25;;;2.90;;
71296;SDS011;59082;50.658;4.608;2023-12-20T08:36:03;5.43;;;2.50;;
71296;SDS011;59082;50.658;4.608;2023-12-20T08:41:08;11.05;;;2.53;;
71296;SDS011;59082;50.658;4.608;2023-12-20T08:43:39;8.47;;;3.00;;
71296;SDS011;59082;50.658;4.608;2023-12-20T08:46:34;8.57;;;1.77;;
71296;SDS011;59082;50.658;4.608;2023-12-20T08:51:47;8.38;;;3.15;;
71296;SDS011;59082;50.658;4.608;2023-12-20T10:52:46;7.43;;;2.45;;
71296;SDS011;59082;50.658;4.608;2023-12-20T10:55:13;13.80;;;3.38;;
71296;SDS011;59082;50.658;4.608;2023-12-20T10:57:41;9.68;;;2.40;;
71296;SDS011;59082;50.658;4.608;2023-12-20T11:00:26;4.77;;;2.57;;
71296;SDS011;59082;50.658;4.608;2023-12-20T11:02:53;6.78;;;2.30;;
71296;SDS011;59082;50.658;4.608;2023-12-20T11:05:28;15.05;;;4.00;;
71296;SDS011;59082;50.658;4.608;2023-12-20T11:14:04;7.47;;;2.33;;
71296;SDS011;59082;50.658;4.608;2023-12-20T11:22:39;10.77;;;3.42;;
71296;SDS011;59082;50.658;4.608;2023-12-20T11:25:15;7.72;;;2.88;;
71296;SDS011;59082;50.658;4.608;2023-12-20T11:27:41;16.43;;;3.90;;
71296;SDS011;59082;50.658;4.608;2023-12-20T11:30:10;16.85;;;4.50;;
71296;SDS011;59082;50.658;4.608;2023-12-20T11:32:41;18.52;;;3.83;;
71296;SDS011;59082;50.658;4.608;2023-12-20T13:54:32;8.93;;;3.13;;
71296;SDS011;59082;50.658;4.608;2023-12-20T13:56:58;11.43;;;3.57;;
71296;SDS011;59082;50.658;4.608;2023-12-20T13:59:24;9.27;;;2.72;;
71296;SDS011;59082;50.658;4.608;2023-12-20T14:01:49;9.03;;;3.17;;
71296;SDS011;59082;50.658;4.608;2023-12-20T14:04:15;12.15;;;2.92;;
71296;SDS011;59082;50.658;4.608;2023-12-20T14:06:40;13.77;;;3.23;;
71296;SDS011;59082;50.658;4.608;2023-12-20T14:09:06;9.00;;;2.87;;
71296;SDS011;59082;50.658;4.608;2023-12-20T14:11:31;10.47;;;3.47;;
71296;SDS011;59082;50.658;4.608;2023-12-20T14:13:57;8.45;;;2.88;;
71296;SDS011;59082;50.658;4.608;2023-12-20T14:16:23;7.87;;;2.73;;
71296;SDS011;59082;50.658;4.608;2023-12-20T14:18:49;8.85;;;3.58;;
71296;SDS011;59082;50.658;4.608;2023-12-20T14:21:14;11.40;;;3.17;;
71296;SDS011;59082;50.658;4.608;2023-12-20T14:23:39;11.43;;;3.60;;
71296;SDS011;59082;50.658;4.608;2023-12-20T14:26:05;9.10;;;3.15;;
71296;SDS011;59082;50.658;4.608;2023-12-20T14:28:30;11.80;;;3.90;;
71296;SDS011;59082;50.658;4.608;2023-12-20T14:30:56;14.57;;;3.63;;
71296;SDS011;59082;50.658;4.608;2023-12-20T14:33:21;10.80;;;3.13;;
71296;SDS011;59082;50.658;4.608;2023-12-20T14:35:47;11.20;;;2.83;;
71296;SDS011;59082;50.658;4.608;2023-12-20T14:38:12;8.60;;;2.97;;
71296;SDS011;59082;50.658;4.608;2023-12-20T14:40:40;9.80;;;3.33;;
71296;SDS011;59082;50.658;4.608;2023-12-20T14:43:06;10.67;;;3.27;;
71296;SDS011;59082;50.658;4.608;2023-12-20T14:45:31;15.57;;;3.73;;
71296;SDS011;59082;50.658;4.608;2023-12-20T14:47:57;8.77;;;3.13;;
71296;SDS011;59082;50.658;4.608;2023-12-20T14:50:22;11.07;;;3.40;;
71296;SDS011;59082;50.658;4.608;2023-12-20T14:52:47;18.63;;;4.37;;
71296;SDS011;59082;50.658;4.608;2023-12-20T14:55:13;13.73;;;4.20;;
71296;SDS011;59082;50.658;4.608;2023-12-20T14:57:38;8.30;;;3.30;;
71296;SDS011;59082;50.658;4.608;2023-12-20T15:00:04;12.50;;;4.00;;
71296;SDS011;59082;50.658;4.608;2023-12-20T15:02:30;13.48;;;3.33;;
71296;SDS011;59082;50.658;4.608;2023-12-20T15:04:56;14.55;;;3.65;;
71296;SDS011;59082;50.658;4.608;2023-12-20T15:07:21;12.23;;;4.37;;
71296;SDS011;59082;50.658;4.608;2023-12-20T15:09:47;10.33;;;3.50;;
71296;SDS011;59082;50.658;4.608;2023-12-20T15:12:12;9.57;;;3.13;;
71296;SDS011;59082;50.658;4.608;2023-12-20T15:14:38;13.98;;;2.95;;
71296;SDS011;59082;50.658;4.608;2023-12-20T15:17:03;9.47;;;3.50;;
71296;SDS011;59082;50.658;4.608;2023-12-20T15:19:30;14.07;;;3.38;;
71296;SDS011;59082;50.658;4.608;2023-12-20T15:21:56;10.18;;;3.05;;
71296;SDS011;59082;50.658;4.608;2023-12-20T15:24:21;11.10;;;3.33;;
71296;SDS011;59082;50.658;4.608;2023-12-20T15:26:53;8.05;;;2.70;;
71296;SDS011;59082;50.658;4.608;2023-12-20T15:29:19;9.00;;;3.50;;
71296;SDS011;59082;50.658;4.608;2023-12-20T15:31:48;5.90;;;3.55;;
71296;SDS011;59082;50.658;4.608;2023-12-20T15:34:14;13.32;;;4.03;;
71296;SDS011;59082;50.658;4.608;2023-12-20T15:36:39;9.93;;;3.33;;
71296;SDS011;59082;50.658;4.608;2023-12-20T15:39:05;17.55;;;3.50;;
71296;SDS011;59082;50.658;4.608;2023-12-20T15:41:33;13.10;;;3.77;;
71296;SDS011;59082;50.658;4.608;2023-12-20T15:43:58;13.52;;;4.13;;
71296;SDS011;59082;50.658;4.608;2023-12-20T15:46:24;11.47;;;3.07;;
71296;SDS011;59082;50.658;4.608;2023-12-20T15:48:49;14.00;;;3.53;;
71296;SDS011;59082;50.658;4.608;2023-12-20T15:51:16;14.35;;;3.65;;
71296;SDS011;59082;50.658;4.608;2023-12-20T15:53:43;9.68;;;4.00;;
71296;SDS011;59082;50.658;4.608;2023-12-20T15:56:08;12.27;;;4.03;;
71296;SDS011;59082;50.658;4.608;2023-12-20T15:58:33;8.00;;;3.90;;
71296;SDS011;59082;50.658;4.608;2023-12-20T16:00:59;10.70;;;3.50;;
71296;SDS011;59082;50.658;4.608;2023-12-20T16:03:24;8.18;;;3.58;;
71296;SDS011;59082;50.658;4.608;2023-12-20T16:05:50;13.73;;;4.10;;
71296;SDS011;59082;50.658;4.608;2023-12-20T16:08:15;10.50;;;3.90;;
71296;SDS011;59082;50.658;4.608;2023-12-20T16:10:40;11.03;;;4.27;;
71296;SDS011;59082;50.658;4.608;2023-12-20T16:13:06;7.60;;;4.03;;
71296;SDS011;59082;50.658;4.608;2023-12-20T16:15:31;13.68;;;4.13;;
71296;SDS011;59082;50.658;4.608;2023-12-20T16:17:57;13.03;;;4.40;;
71296;SDS011;59082;50.658;4.608;2023-12-20T16:20:22;13.63;;;4.50;;
71296;SDS011;59082;50.658;4.608;2023-12-20T16:22:48;10.57;;;4.03;;
71296;SDS011;59082;50.658;4.608;2023-12-20T16:25:13;10.18;;;3.45;;
71296;SDS011;59082;50.658;4.608;2023-12-20T16:27:38;9.30;;;4.23;;
71296;SDS011;59082;50.658;4.608;2023-12-20T16:30:04;10.90;;;3.73;;
71296;SDS011;59082;50.658;4.608;2023-12-20T16:32:30;5.95;;;2.60;;
71296;SDS011;59082;50.658;4.608;2023-12-20T16:34:56;16.43;;;3.43;;
71296;SDS011;59082;50.658;4.608;2023-12-20T16:37:22;17.50;;;4.38;;
71296;SDS011;59082;50.658;4.608;2023-12-20T16:39:47;9.03;;;3.53;;
71296;SDS011;59082;50.658;4.608;2023-12-20T16:42:13;8.73;;;4.73;;
71296;SDS011;59082;50.658;4.608;2023-12-20T16:44:38;12.50;;;4.53;;
71296;SDS011;59082;50.658;4.608;2023-12-20T16:47:03;14.32;;;4.35;;
71296;SDS011;59082;50.658;4.608;2023-12-20T16:49:29;10.90;;;5.30;;
71296;SDS011;59082;50.658;4.608;2023-12-20T16:51:55;15.95;;;4.18;;
71296;SDS011;59082;50.658;4.608;2023-12-20T16:54:20;14.03;;;4.67;;
71296;SDS011;59082;50.658;4.608;2023-12-20T16:56:46;13.73;;;4.63;;
71296;SDS011;59082;50.658;4.608;2023-12-20T16:59:11;11.17;;;4.03;;
71296;SDS011;59082;50.658;4.608;2023-12-20T17:01:36;15.60;;;5.67;;
71296;SDS011;59082;50.658;4.608;2023-12-20T17:04:02;9.40;;;4.43;;
71296;SDS011;59082;50.658;4.608;2023-12-20T17:06:28;10.60;;;5.60;;
71296;SDS011;59082;50.658;4.608;2023-12-20T17:08:53;15.70;;;5.32;;
71296;SDS011;59082;50.658;4.608;2023-12-20T17:11:19;12.10;;;4.27;;
71296;SDS011;59082;50.658;4.608;2023-12-20T17:13:46;13.52;;;4.70;;
71296;SDS011;59082;50.658;4.608;2023-12-20T17:16:12;14.10;;;4.23;;
71296;SDS011;59082;50.658;4.608;2023-12-20T17:18:37;13.70;;;4.15;;
71296;SDS011;59082;50.658;4.608;2023-12-20T17:21:06;14.57;;;5.60;;
71296;SDS011;59082;50.658;4.608;2023-12-20T17:23:31;9.15;;;3.83;;
71296;SDS011;59082;50.658;4.608;2023-12-20T17:25:57;10.97;;;4.13;;
71296;SDS011;59082;50.658;4.608;2023-12-20T17:28:22;12.63;;;4.67;;
71296;SDS011;59082;50.658;4.608;2023-12-20T17:30:47;20.93;;;8.47;;
71296;SDS011;59082;50.658;4.608;2023-12-20T17:33:13;21.67;;;7.90;;
71296;SDS011;59082;50.658;4.608;2023-12-20T17:35:39;14.27;;;4.80;;
71296;SDS011;59082;50.658;4.608;2023-12-20T17:38:04;13.50;;;5.83;;
71296;SDS011;59082;50.658;4.608;2023-12-20T17:40:29;13.97;;;5.20;;
71296;SDS011;59082;50.658;4.608;2023-12-20T17:42:55;26.77;;;9.27;;
71296;SDS011;59082;50.658;4.608;2023-12-20T17:45:21;22.47;;;9.23;;
71296;SDS011;59082;50.658;4.608;2023-12-20T17:47:46;31.25;;;12.80;;
71296;SDS011;59082;50.658;4.608;2023-12-20T17:50:11;10.37;;;4.03;;
71296;SDS011;59082;50.658;4.608;2023-12-20T17:52:37;7.17;;;3.77;;
71296;SDS011;59082;50.658;4.608;2023-12-20T17:55:02;11.27;;;3.90;;
71296;SDS011;59082;50.658;4.608;2023-12-20T17:57:28;10.88;;;3.95;;
71296;SDS011;59082;50.658;4.608;2023-12-20T17:59:53;10.07;;;2.67;;
71296;SDS011;59082;50.658;4.608;2023-12-20T18:02:19;9.33;;;3.93;;
71296;SDS011;59082;50.658;4.608;2023-12-20T18:04:44;12.07;;;4.57;;
71296;SDS011;59082;50.658;4.608;2023-12-20T18:07:12;11.07;;;4.45;;
71296;SDS011;59082;50.658;4.608;2023-12-20T18:09:38;13.20;;;4.30;;
71296;SDS011;59082;50.658;4.608;2023-12-20T18:12:04;16.27;;;5.50;;
71296;SDS011;59082;50.658;4.608;2023-12-20T18:14:32;10.23;;;3.95;;
71296;SDS011;59082;50.658;4.608;2023-12-20T18:16:57;5.70;;;3.33;;
71296;SDS011;59082;50.658;4.608;2023-12-20T18:19:22;13.77;;;5.03;;
71296;SDS011;59082;50.658;4.608;2023-12-20T18:21:48;10.93;;;3.77;;
71296;SDS011;59082;50.658;4.608;2023-12-20T18:24:13;6.93;;;3.33;;
71296;SDS011;59082;50.658;4.608;2023-12-20T18:26:38;9.87;;;4.80;;
71296;SDS011;59082;50.658;4.608;2023-12-20T18:29:04;9.45;;;3.63;;
71296;SDS011;59082;50.658;4.608;2023-12-20T18:31:30;8.43;;;4.03;;
71296;SDS011;59082;50.658;4.608;2023-12-20T18:33:55;14.57;;;3.30;;
71296;SDS011;59082;50.658;4.608;2023-12-20T18:36:21;12.20;;;3.77;;
71296;SDS011;59082;50.658;4.608;2023-12-20T18:38:46;16.23;;;5.10;;
71296;SDS011;59082;50.658;4.608;2023-12-20T18:41:12;13.25;;;3.50;;
71296;SDS011;59082;50.658;4.608;2023-12-20T18:43:40;12.77;;;4.73;;
71296;SDS011;59082;50.658;4.608;2023-12-20T18:46:06;7.85;;;4.40;;
71296;SDS011;59082;50.658;4.608;2023-12-20T18:48:31;13.37;;;3.73;;
71296;SDS011;59082;50.658;4.608;2023-12-20T18:50:58;9.32;;;3.05;;
71296;SDS011;59082;50.658;4.608;2023-12-20T18:53:24;7.73;;;3.43;;
71296;SDS011;59082;50.658;4.608;2023-12-20T18:55:49;11.80;;;4.10;;
71296;SDS011;59082;50.658;4.608;2023-12-20T18:58:14;8.87;;;3.57;;
71296;SDS011;59082;50.658;4.608;2023-12-20T19:00:40;7.97;;;3.17;;
71296;SDS011;59082;50.658;4.608;2023-12-20T19:05:42;7.85;;;3.50;;
71296;SDS011;59082;50.658;4.608;2023-12-20T19:08:07;10.60;;;3.50;;
71296;SDS011;59082;50.658;4.608;2023-12-20T19:10:33;11.90;;;4.40;;
71296;SDS011;59082;50.658;4.608;2023-12-20T19:12:58;11.47;;;3.80;;
71296;SDS011;59082;50.658;4.608;2023-12-20T19:15:24;15.17;;;3.80;;